Aviation Digital Data Service (ADDS)

Output produced by METARs form (0539 UTC 16 February 2019)
found at http://www.aviationweather.gov/metar/data/
 
Forecast for: DNIM (SAM MBAKWE , NG)
Text: TAF DNIM 160330Z 1606/1712 VRB02KT 5000 HZ NSC
Forecast period: 0600 to 0900 UTC 16 February 2019
Forecast type: FROM: standard forecast or significant change
Winds: variable direction winds at 2 MPH (2 knots; 1.0 m/s)
Visibility: 3 miles (5 km)
Ceiling: unknown
Clouds: missing
Weather: HZ  (haze)
Text: TEMPO 1606/1608 3000 HZ
Forecast period: 0600 to 0800 UTC 16 February 2019
Forecast type: TEMPORARY: The following changes expected for less than half the time period
Visibility: 1.86 miles (2.99 km)
Ceiling: unknown
Clouds: missing
Weather: HZ  (haze)
Text: BECMG 1609/1611 29010KT
Forecast period: 0900 UTC 16 February 2019 to 1200 UTC 17 February 2019
Forecast type: BECOMING: Conditions expected to become as follows by 1100 UTC 16 February 2019
Winds: from the WNW (290 degrees) at 12 MPH (10 knots; 5.1 m/s)
Visibility: 3 miles (5 km)
Ceiling: unknown
Clouds: missing
Weather: HZ  (haze)